sensor_id;sensor_type;location;lat;lon;timestamp;pressure;altitude;pressure_sealevel;temperature;humidity
70982;BME280;58640;51.320;9.456;2022-08-01T00:00:31;99331.41;;;19.56;86.64
70982;BME280;58640;51.320;9.456;2022-08-01T00:02:56;99324.78;;;19.52;86.92
70982;BME280;58640;51.320;9.456;2022-08-01T00:05:22;99330.25;;;19.52;87.12
70982;BME280;58640;51.320;9.456;2022-08-01T00:07:47;99328.13;;;19.54;86.75
70982;BME280;58640;51.320;9.456;2022-08-01T00:10:14;99323.47;;;19.55;86.85
70982;BME280;58640;51.320;9.456;2022-08-01T00:12:40;99332.72;;;19.54;86.94
70982;BME280;58640;51.320;9.456;2022-08-01T00:15:08;99319.69;;;19.56;86.56
70982;BME280;58640;51.320;9.456;2022-08-01T00:17:35;99323.94;;;19.52;87.43
70982;BME280;58640;51.320;9.456;2022-08-01T00:20:01;99325.63;;;19.53;87.26
70982;BME280;58640;51.320;9.456;2022-08-01T00:22:27;99317.22;;;19.54;87.45
70982;BME280;58640;51.320;9.456;2022-08-01T00:24:53;99324.41;;;19.49;87.78
70982;BME280;58640;51.320;9.456;2022-08-01T00:27:18;99331.06;;;19.41;88.39
70982;BME280;58640;51.320;9.456;2022-08-01T00:29:43;99324.53;;;19.42;87.88
70982;BME280;58640;51.320;9.456;2022-08-01T00:32:09;99326.69;;;19.40;88.21
70982;BME280;58640;51.320;9.456;2022-08-01T00:34:34;99316.59;;;19.41;88.39
70982;BME280;58640;51.320;9.456;2022-08-01T00:36:59;99313.25;;;19.39;88.39
70982;BME280;58640;51.320;9.456;2022-08-01T00:39:25;99320.16;;;19.41;88.03
70982;BME280;58640;51.320;9.456;2022-08-01T00:41:50;99326.69;;;19.40;88.18
70982;BME280;58640;51.320;9.456;2022-08-01T00:44:16;99320.38;;;19.40;88.07
70982;BME280;58640;51.320;9.456;2022-08-01T00:46:41;99312.81;;;19.42;88.02
70982;BME280;58640;51.320;9.456;2022-08-01T00:49:07;99319.06;;;19.42;88.11
70982;BME280;58640;51.320;9.456;2022-08-01T00:51:32;99322.28;;;19.74;84.81
70982;BME280;58640;51.320;9.456;2022-08-01T00:53:58;99323.00;;;19.69;85.06
70982;BME280;58640;51.320;9.456;2022-08-01T00:56:25;99311.63;;;19.61;85.01
70982;BME280;58640;51.320;9.456;2022-08-01T00:58:51;99310.19;;;19.58;85.23
70982;BME280;58640;51.320;9.456;2022-08-01T01:01:17;99316.59;;;19.52;85.86
70982;BME280;58640;51.320;9.456;2022-08-01T01:03:43;99305.69;;;19.52;86.91
70982;BME280;58640;51.320;9.456;2022-08-01T01:06:19;99313.88;;;19.52;86.23
70982;BME280;58640;51.320;9.456;2022-08-01T01:09:30;99304.25;;;19.38;86.97
70982;BME280;58640;51.320;9.456;2022-08-01T01:17:06;99308.28;;;19.36;87.89
70982;BME280;58640;51.320;9.456;2022-08-01T01:19:36;99304.25;;;19.38;87.94
70982;BME280;58640;51.320;9.456;2022-08-01T01:26:28;99309.59;;;19.56;86.25
70982;BME280;58640;51.320;9.456;2022-08-01T01:31:16;99311.00;;;19.36;88.39
70982;BME280;58640;51.320;9.456;2022-08-01T01:33:44;99312.06;;;19.35;87.97
70982;BME280;58640;51.320;9.456;2022-08-01T01:36:11;99319.28;;;19.29;88.63
70982;BME280;58640;51.320;9.456;2022-08-01T01:38:42;99318.47;;;19.29;88.91
70982;BME280;58640;51.320;9.456;2022-08-01T01:41:11;99309.44;;;19.28;89.45
70982;BME280;58640;51.320;9.456;2022-08-01T01:43:39;99315.13;;;19.27;89.23
70982;BME280;58640;51.320;9.456;2022-08-01T01:46:05;99313.47;;;19.26;88.88
70982;BME280;58640;51.320;9.456;2022-08-01T01:48:33;99323.75;;;19.24;88.81
70982;BME280;58640;51.320;9.456;2022-08-01T01:51:00;99319.72;;;19.26;88.42
70982;BME280;58640;51.320;9.456;2022-08-01T01:53:27;99308.25;;;19.24;88.15
70982;BME280;58640;51.320;9.456;2022-08-01T01:55:55;99309.81;;;19.32;87.45
70982;BME280;58640;51.320;9.456;2022-08-01T01:58:22;99306.50;;;19.30;87.25
70982;BME280;58640;51.320;9.456;2022-08-01T02:00:50;99313.38;;;19.32;86.62
70982;BME280;58640;51.320;9.456;2022-08-01T02:03:18;99309.59;;;19.33;86.85
70982;BME280;58640;51.320;9.456;2022-08-01T02:05:44;99316.22;;;19.37;86.02
70982;BME280;58640;51.320;9.456;2022-08-01T02:08:10;99317.53;;;19.35;86.05
70982;BME280;58640;51.320;9.456;2022-08-01T02:10:39;99309.81;;;19.32;86.26
70982;BME280;58640;51.320;9.456;2022-08-01T02:13:05;99307.09;;;19.32;86.53
70982;BME280;58640;51.320;9.456;2022-08-01T02:15:33;99307.22;;;19.37;85.85
70982;BME280;58640;51.320;9.456;2022-08-01T02:18:01;99311.50;;;19.44;85.00
70982;BME280;58640;51.320;9.456;2022-08-01T02:20:29;99312.06;;;19.35;85.38
70982;BME280;58640;51.320;9.456;2022-08-01T02:23:06;99309.59;;;19.33;85.53
70982;BME280;58640;51.320;9.456;2022-08-01T02:25:38;99313.47;;;19.26;85.53
70982;BME280;58640;51.320;9.456;2022-08-01T02:28:10;99312.69;;;19.37;85.39
70982;BME280;58640;51.320;9.456;2022-08-01T02:30:39;99317.69;;;19.51;84.56
70982;BME280;58640;51.320;9.456;2022-08-01T02:36:25;99314.69;;;19.41;84.03
70982;BME280;58640;51.320;9.456;2022-08-01T02:38:53;99316.34;;;19.42;83.87
70982;BME280;58640;51.320;9.456;2022-08-01T02:41:21;99314.56;;;19.36;84.49
70982;BME280;58640;51.320;9.456;2022-08-01T02:43:49;99318.84;;;19.32;84.71
70982;BME280;58640;51.320;9.456;2022-08-01T02:46:21;99316.31;;;19.31;85.15
70982;BME280;58640;51.320;9.456;2022-08-01T02:48:47;99315.94;;;19.27;85.42
70982;BME280;58640;51.320;9.456;2022-08-01T02:51:16;99304.59;;;19.30;85.01
70982;BME280;58640;51.320;9.456;2022-08-01T02:53:42;99310.28;;;19.29;85.15
70982;BME280;58640;51.320;9.456;2022-08-01T02:56:10;99313.94;;;19.23;85.76
70982;BME280;58640;51.320;9.456;2022-08-01T02:58:37;99307.41;;;19.24;85.66
70982;BME280;58640;51.320;9.456;2022-08-01T03:01:05;99309.53;;;19.22;85.87
70982;BME280;58640;51.320;9.456;2022-08-01T03:03:33;99313.09;;;19.22;85.73
70982;BME280;58640;51.320;9.456;2022-08-01T03:05:59;99311.88;;;19.18;86.07
70982;BME280;58640;51.320;9.456;2022-08-01T03:08:28;99313.81;;;19.18;86.03
70982;BME280;58640;51.320;9.456;2022-08-01T03:10:56;99312.97;;;19.17;86.20
70982;BME280;58640;51.320;9.456;2022-08-01T03:13:25;99314.84;;;19.17;86.87
70982;BME280;58640;51.320;9.456;2022-08-01T03:15:54;99315.22;;;19.20;86.33
70982;BME280;58640;51.320;9.456;2022-08-01T03:18:21;99317.72;;;19.22;86.44
70982;BME280;58640;51.320;9.456;2022-08-01T03:20:50;99314.75;;;19.23;86.76
70982;BME280;58640;51.320;9.456;2022-08-01T03:23:18;99313.03;;;19.29;86.08
70982;BME280;58640;51.320;9.456;2022-08-01T03:25:46;99319.59;;;19.21;86.59
70982;BME280;58640;51.320;9.456;2022-08-01T03:28:15;99324.47;;;19.19;86.70
70982;BME280;58640;51.320;9.456;2022-08-01T03:30:42;99323.63;;;19.19;86.79
70982;BME280;58640;51.320;9.456;2022-08-01T03:33:08;99317.56;;;19.17;87.04
70982;BME280;58640;51.320;9.456;2022-08-01T03:35:37;99322.22;;;19.16;87.23
70982;BME280;58640;51.320;9.456;2022-08-01T03:38:05;99326.22;;;19.14;87.22
70982;BME280;58640;51.320;9.456;2022-08-01T03:40:40;99323.34;;;19.09;87.21
70982;BME280;58640;51.320;9.456;2022-08-01T03:43:15;99326.09;;;19.09;87.75
70982;BME280;58640;51.320;9.456;2022-08-01T03:45:46;99324.44;;;19.08;88.34
70982;BME280;58640;51.320;9.456;2022-08-01T03:48:16;99328.91;;;19.02;88.39
70982;BME280;58640;51.320;9.456;2022-08-01T03:50:46;99326.44;;;19.12;87.52
70982;BME280;58640;51.320;9.456;2022-08-01T03:53:13;99323.81;;;19.06;87.80
70982;BME280;58640;51.320;9.456;2022-08-01T03:55:39;99336.19;;;19.08;87.60
70982;BME280;58640;51.320;9.456;2022-08-01T03:58:07;99342.91;;;19.06;87.95
70982;BME280;58640;51.320;9.456;2022-08-01T04:00:36;99329.50;;;19.04;88.20
70982;BME280;58640;51.320;9.456;2022-08-01T04:03:03;99329.28;;;19.06;87.91
70982;BME280;58640;51.320;9.456;2022-08-01T04:05:29;99329.88;;;19.08;87.91
70982;BME280;58640;51.320;9.456;2022-08-01T04:07:56;99329.31;;;19.17;87.13
70982;BME280;58640;51.320;9.456;2022-08-01T04:10:23;99337.13;;;19.14;87.16
70982;BME280;58640;51.320;9.456;2022-08-01T04:12:49;99344.13;;;19.10;87.86
70982;BME280;58640;51.320;9.456;2022-08-01T04:15:14;99341.63;;;19.08;87.81
70982;BME280;58640;51.320;9.456;2022-08-01T04:17:40;99356.31;;;19.48;84.68
70982;BME280;58640;51.320;9.456;2022-08-01T04:20:06;99352.53;;;19.38;84.30
70982;BME280;58640;51.320;9.456;2022-08-01T04:22:31;99362.13;;;19.29;84.41
70982;BME280;58640;51.320;9.456;2022-08-01T04:24:57;99357.91;;;19.26;84.14
70982;BME280;58640;51.320;9.456;2022-08-01T04:27:29;99363.75;;;19.30;83.67
70982;BME280;58640;51.320;9.456;2022-08-01T04:29:58;99363.13;;;19.16;83.89
70982;BME280;58640;51.320;9.456;2022-08-01T04:32:25;99364.91;;;19.22;83.09
70982;BME280;58640;51.320;9.456;2022-08-01T04:34:53;99361.09;;;19.23;82.58
70982;BME280;58640;51.320;9.456;2022-08-01T04:37:22;99374.16;;;18.91;84.17
70982;BME280;58640;51.320;9.456;2022-08-01T04:39:50;99368.78;;;18.85;84.13
70982;BME280;58640;51.320;9.456;2022-08-01T04:42:17;99377.03;;;18.97;83.82
70982;BME280;58640;51.320;9.456;2022-08-01T04:44:43;99375.81;;;18.92;83.69
70982;BME280;58640;51.320;9.456;2022-08-01T04:47:08;99381.94;;;18.88;83.51
70982;BME280;58640;51.320;9.456;2022-08-01T04:49:35;99383.97;;;18.92;83.78
70982;BME280;58640;51.320;9.456;2022-08-01T04:52:01;99381.25;;;18.92;83.60
70982;BME280;58640;51.320;9.456;2022-08-01T04:54:27;99383.66;;;19.01;82.95
70982;BME280;58640;51.320;9.456;2022-08-01T04:56:54;99379.94;;;18.83;83.81
70982;BME280;58640;51.320;9.456;2022-08-01T04:59:26;99382.88;;;18.82;84.09
70982;BME280;58640;51.320;9.456;2022-08-01T05:02:05;99380.00;;;18.77;84.75
70982;BME280;58640;51.320;9.456;2022-08-01T05:04:31;99383.94;;;18.81;84.56
70982;BME280;58640;51.320;9.456;2022-08-01T05:06:56;99389.63;;;18.79;84.89
70982;BME280;58640;51.320;9.456;2022-08-01T05:09:21;99389.25;;;18.76;85.60
70982;BME280;58640;51.320;9.456;2022-08-01T05:11:47;99396.66;;;18.87;84.31
70982;BME280;58640;51.320;9.456;2022-08-01T05:14:12;99397.28;;;19.01;83.71
70982;BME280;58640;51.320;9.456;2022-08-01T05:16:37;99396.28;;;19.13;82.97
70982;BME280;58640;51.320;9.456;2022-08-01T05:19:03;99399.94;;;19.07;83.22
70982;BME280;58640;51.320;9.456;2022-08-01T05:21:28;99395.34;;;18.89;84.33
70982;BME280;58640;51.320;9.456;2022-08-01T05:23:53;99394.66;;;18.94;83.76
70982;BME280;58640;51.320;9.456;2022-08-01T05:26:19;99390.09;;;19.06;83.33
70982;BME280;58640;51.320;9.456;2022-08-01T05:28:44;99400.44;;;19.16;83.23
70982;BME280;58640;51.320;9.456;2022-08-01T05:31:09;99399.50;;;19.22;82.64
70982;BME280;58640;51.320;9.456;2022-08-01T05:33:35;99400.28;;;19.29;82.95
70982;BME280;58640;51.320;9.456;2022-08-01T05:36:00;99399.25;;;19.41;81.86
70982;BME280;58640;51.320;9.456;2022-08-01T05:38:25;99398.31;;;19.47;81.52
70982;BME280;58640;51.320;9.456;2022-08-01T05:40:51;99396.63;;;19.35;81.94
70982;BME280;58640;51.320;9.456;2022-08-01T05:43:16;99399.13;;;19.36;81.54
70982;BME280;58640;51.320;9.456;2022-08-01T05:45:42;99410.97;;;19.30;82.30
70982;BME280;58640;51.320;9.456;2022-08-01T05:48:07;99413.53;;;19.25;82.47
70982;BME280;58640;51.320;9.456;2022-08-01T05:50:32;99403.41;;;19.32;82.33
70982;BME280;58640;51.320;9.456;2022-08-01T05:52:58;99403.59;;;19.31;82.07
70982;BME280;58640;51.320;9.456;2022-08-01T05:55:23;99409.50;;;19.28;82.14
70982;BME280;58640;51.320;9.456;2022-08-01T05:57:48;99408.91;;;19.26;82.08
70982;BME280;58640;51.320;9.456;2022-08-01T06:00:14;99414.31;;;19.14;83.01
70982;BME280;58640;51.320;9.456;2022-08-01T06:02:41;99418.00;;;19.20;82.86
70982;BME280;58640;51.320;9.456;2022-08-01T06:05:09;99427.72;;;19.16;82.96
70982;BME280;58640;51.320;9.456;2022-08-01T06:07:34;99424.84;;;19.11;84.69
70982;BME280;58640;51.320;9.456;2022-08-01T06:10:00;99433.16;;;19.16;84.35
70982;BME280;58640;51.320;9.456;2022-08-01T06:12:25;99426.97;;;19.09;85.27
70982;BME280;58640;51.320;9.456;2022-08-01T06:14:51;99425.53;;;19.06;85.01
70982;BME280;58640;51.320;9.456;2022-08-01T06:17:16;99429.09;;;19.07;84.83
70982;BME280;58640;51.320;9.456;2022-08-01T06:19:41;99432.28;;;19.04;85.64
70982;BME280;58640;51.320;9.456;2022-08-01T06:22:07;99436.38;;;19.13;85.12
70982;BME280;58640;51.320;9.456;2022-08-01T06:24:32;99434.03;;;19.28;83.42
70982;BME280;58640;51.320;9.456;2022-08-01T06:26:58;99437.69;;;19.22;83.51
70982;BME280;58640;51.320;9.456;2022-08-01T06:29:23;99439.22;;;19.18;84.35
70982;BME280;58640;51.320;9.456;2022-08-01T06:31:49;99435.94;;;19.27;83.68
70982;BME280;58640;51.320;9.456;2022-08-01T06:34:15;99447.31;;;19.24;83.00
70982;BME280;58640;51.320;9.456;2022-08-01T06:36:40;99453.91;;;19.35;82.75
70982;BME280;58640;51.320;9.456;2022-08-01T06:39:06;99459.75;;;19.38;82.84
70982;BME280;58640;51.320;9.456;2022-08-01T06:41:31;99452.81;;;19.65;82.03
70982;BME280;58640;51.320;9.456;2022-08-01T06:43:57;99457.28;;;19.89;80.38
70982;BME280;58640;51.320;9.456;2022-08-01T06:46:22;99453.63;;;20.30;77.72
70982;BME280;58640;51.320;9.456;2022-08-01T06:48:48;99456.47;;;20.23;77.11
70982;BME280;58640;51.320;9.456;2022-08-01T06:51:13;99460.28;;;20.22;76.32
70982;BME280;58640;51.320;9.456;2022-08-01T06:53:42;99457.63;;;20.04;77.11
70982;BME280;58640;51.320;9.456;2022-08-01T06:56:07;99466.03;;;19.91;78.11
70982;BME280;58640;51.320;9.456;2022-08-01T06:58:34;99462.16;;;19.99;77.83
70982;BME280;58640;51.320;9.456;2022-08-01T07:01:00;99469.50;;;19.98;77.73
70982;BME280;58640;51.320;9.456;2022-08-01T07:03:26;99469.69;;;19.74;78.32
70982;BME280;58640;51.320;9.456;2022-08-01T07:05:52;99471.09;;;19.65;79.22
70982;BME280;58640;51.320;9.456;2022-08-01T07:08:17;99468.03;;;19.73;79.65
70982;BME280;58640;51.320;9.456;2022-08-01T07:10:43;99464.56;;;19.66;79.75
70982;BME280;58640;51.320;9.456;2022-08-01T07:13:08;99464.13;;;19.69;80.09
70982;BME280;58640;51.320;9.456;2022-08-01T07:15:34;99459.28;;;19.41;80.78
70982;BME280;58640;51.320;9.456;2022-08-01T07:17:59;99459.41;;;19.46;80.94
70982;BME280;58640;51.320;9.456;2022-08-01T07:20:28;99461.53;;;19.44;81.01
70982;BME280;58640;51.320;9.456;2022-08-01T07:22:54;99457.44;;;19.65;80.25
70982;BME280;58640;51.320;9.456;2022-08-01T07:25:19;99456.94;;;19.56;81.14
70982;BME280;58640;51.320;9.456;2022-08-01T07:27:44;99458.63;;;19.57;81.92
70982;BME280;58640;51.320;9.456;2022-08-01T07:30:10;99461.94;;;19.59;81.77
70982;BME280;58640;51.320;9.456;2022-08-01T07:32:36;99458.19;;;19.72;80.72
70982;BME280;58640;51.320;9.456;2022-08-01T07:35:02;99460.41;;;19.63;81.15
70982;BME280;58640;51.320;9.456;2022-08-01T07:37:28;99462.19;;;19.58;81.44
70982;BME280;58640;51.320;9.456;2022-08-01T07:39:53;99461.22;;;19.52;79.28
70982;BME280;58640;51.320;9.456;2022-08-01T07:42:19;99475.19;;;19.44;79.94
70982;BME280;58640;51.320;9.456;2022-08-01T07:44:44;99462.69;;;19.37;80.99
70982;BME280;58640;51.320;9.456;2022-08-01T07:47:09;99461.06;;;19.47;79.90
70982;BME280;58640;51.320;9.456;2022-08-01T07:49:35;99468.88;;;19.44;82.00
70982;BME280;58640;51.320;9.456;2022-08-01T07:52:00;99475.09;;;19.51;80.13
70982;BME280;58640;51.320;9.456;2022-08-01T07:54:26;99465.91;;;19.45;82.14
70982;BME280;58640;51.320;9.456;2022-08-01T07:56:53;99460.75;;;19.55;81.40
70982;BME280;58640;51.320;9.456;2022-08-01T07:59:19;99471.56;;;19.62;82.53
70982;BME280;58640;51.320;9.456;2022-08-01T08:01:48;99478.66;;;19.63;82.22
70982;BME280;58640;51.320;9.456;2022-08-01T08:04:14;99485.25;;;19.73;80.57
70982;BME280;58640;51.320;9.456;2022-08-01T08:06:39;99479.34;;;19.88;80.10
70982;BME280;58640;51.320;9.456;2022-08-01T08:09:06;99479.44;;;19.93;80.36
70982;BME280;58640;51.320;9.456;2022-08-01T08:11:32;99478.66;;;20.04;79.86
70982;BME280;58640;51.320;9.456;2022-08-01T08:13:57;99487.84;;;20.21;78.72
70982;BME280;58640;51.320;9.456;2022-08-01T08:16:22;99485.31;;;20.08;77.31
70982;BME280;58640;51.320;9.456;2022-08-01T08:18:48;99488.97;;;20.02;78.08
70982;BME280;58640;51.320;9.456;2022-08-01T08:21:13;99487.78;;;19.98;77.74
70982;BME280;58640;51.320;9.456;2022-08-01T08:23:38;99499.38;;;19.82;79.51
70982;BME280;58640;51.320;9.456;2022-08-01T08:26:22;99492.22;;;19.69;81.84
70982;BME280;58640;51.320;9.456;2022-08-01T08:28:48;99498.16;;;19.66;82.17
70982;BME280;58640;51.320;9.456;2022-08-01T08:31:14;99493.03;;;20.11;79.17
70982;BME280;58640;51.320;9.456;2022-08-01T08:33:39;99492.34;;;20.27;77.80
70982;BME280;58640;51.320;9.456;2022-08-01T08:36:05;99492.88;;;20.06;79.17
70982;BME280;58640;51.320;9.456;2022-08-01T08:38:30;99496.84;;;20.10;79.84
70982;BME280;58640;51.320;9.456;2022-08-01T08:40:56;99499.38;;;20.23;79.68
70982;BME280;58640;51.320;9.456;2022-08-01T08:43:22;99493.19;;;20.62;78.07
70982;BME280;58640;51.320;9.456;2022-08-01T08:45:50;99503.72;;;21.05;77.01
70982;BME280;58640;51.320;9.456;2022-08-01T08:48:16;99505.69;;;21.32;76.80
70982;BME280;58640;51.320;9.456;2022-08-01T08:50:43;99501.53;;;21.58;73.66
70982;BME280;58640;51.320;9.456;2022-08-01T08:53:09;99497.31;;;21.67;71.14
70982;BME280;58640;51.320;9.456;2022-08-01T08:55:35;99494.66;;;21.55;72.20
70982;BME280;58640;51.320;9.456;2022-08-01T08:58:02;99501.81;;;21.45;73.78
70982;BME280;58640;51.320;9.456;2022-08-01T09:00:31;99500.16;;;21.44;73.99
70982;BME280;58640;51.320;9.456;2022-08-01T09:02:56;99502.16;;;21.48;74.31
70982;BME280;58640;51.320;9.456;2022-08-01T09:05:22;99505.34;;;21.57;74.55
70982;BME280;58640;51.320;9.456;2022-08-01T09:07:53;99496.09;;;21.74;72.24
70982;BME280;58640;51.320;9.456;2022-08-01T09:10:19;99501.72;;;21.80;71.98
70982;BME280;58640;51.320;9.456;2022-08-01T09:18:03;99501.66;;;22.57;71.38
70982;BME280;58640;51.320;9.456;2022-08-01T09:20:29;99506.63;;;22.98;70.51
70982;BME280;58640;51.320;9.456;2022-08-01T09:22:54;99506.84;;;23.13;65.99
70982;BME280;58640;51.320;9.456;2022-08-01T09:25:19;99512.81;;;23.10;67.03
70982;BME280;58640;51.320;9.456;2022-08-01T09:27:45;99510.97;;;23.33;66.62
70982;BME280;58640;51.320;9.456;2022-08-01T09:30:13;99502.75;;;23.59;64.15
70982;BME280;58640;51.320;9.456;2022-08-01T09:32:59;99501.81;;;23.75;62.81
70982;BME280;58640;51.320;9.456;2022-08-01T09:35:30;99512.75;;;23.70;63.72
70982;BME280;58640;51.320;9.456;2022-08-01T09:38:16;99504.69;;;23.90;62.88
70982;BME280;58640;51.320;9.456;2022-08-01T09:40:50;99508.66;;;23.73;62.75
70982;BME280;58640;51.320;9.456;2022-08-01T09:43:17;99503.31;;;23.88;61.85
70982;BME280;58640;51.320;9.456;2022-08-01T09:45:43;99506.59;;;23.85;63.18
70982;BME280;58640;51.320;9.456;2022-08-01T09:48:09;99508.56;;;23.89;62.36
70982;BME280;58640;51.320;9.456;2022-08-01T09:50:42;99514.56;;;23.86;62.25
70982;BME280;58640;51.320;9.456;2022-08-01T09:53:09;99513.13;;;23.79;61.48
70982;BME280;58640;51.320;9.456;2022-08-01T09:55:35;99499.75;;;23.61;60.46
70982;BME280;58640;51.320;9.456;2022-08-01T09:58:00;99513.31;;;23.72;59.88
70982;BME280;58640;51.320;9.456;2022-08-01T10:00:27;99503.38;;;23.66;59.36
70982;BME280;58640;51.320;9.456;2022-08-01T10:02:52;99513.25;;;23.41;59.89
70982;BME280;58640;51.320;9.456;2022-08-01T10:05:30;99508.25;;;23.38;60.44
70982;BME280;58640;51.320;9.456;2022-08-01T10:07:58;99513.41;;;23.12;63.07
70982;BME280;58640;51.320;9.456;2022-08-01T10:10:23;99514.38;;;23.23;61.29
70982;BME280;58640;51.320;9.456;2022-08-01T10:12:51;99507.78;;;23.02;63.11
70982;BME280;58640;51.320;9.456;2022-08-01T10:15:17;99510.50;;;23.41;62.25
70982;BME280;58640;51.320;9.456;2022-08-01T10:17:50;99501.19;;;23.68;62.25
70982;BME280;58640;51.320;9.456;2022-08-01T10:20:23;99504.88;;;23.79;62.20
70982;BME280;58640;51.320;9.456;2022-08-01T10:22:51;99507.59;;;24.00;59.93
70982;BME280;58640;51.320;9.456;2022-08-01T10:25:19;99498.59;;;23.83;58.59
70982;BME280;58640;51.320;9.456;2022-08-01T10:27:49;99496.31;;;23.75;60.08
70982;BME280;58640;51.320;9.456;2022-08-01T10:30:17;99496.91;;;23.77;60.05
70982;BME280;58640;51.320;9.456;2022-08-01T10:32:45;99491.63;;;23.97;62.56
70982;BME280;58640;51.320;9.456;2022-08-01T10:35:11;99499.00;;;24.23;60.41
70982;BME280;58640;51.320;9.456;2022-08-01T10:37:44;99498.97;;;24.18;59.80
70982;BME280;58640;51.320;9.456;2022-08-01T10:40:12;99511.03;;;23.91;60.46
70982;BME280;58640;51.320;9.456;2022-08-01T10:42:40;99511.09;;;23.69;59.33
70982;BME280;58640;51.320;9.456;2022-08-01T10:45:07;99505.38;;;23.49;59.89
70982;BME280;58640;51.320;9.456;2022-08-01T10:47:59;99523.25;;;23.30;59.89
70982;BME280;58640;51.320;9.456;2022-08-01T10:50:32;99519.69;;;22.91;61.60
70982;BME280;58640;51.320;9.456;2022-08-01T10:53:14;99522.63;;;23.45;59.32
70982;BME280;58640;51.320;9.456;2022-08-01T10:58:11;99508.94;;;24.29;58.58
70982;BME280;58640;51.320;9.456;2022-08-01T11:00:36;99506.06;;;24.46;59.51
70982;BME280;58640;51.320;9.456;2022-08-01T11:03:03;99505.88;;;24.63;58.16
70982;BME280;58640;51.320;9.456;2022-08-01T11:05:35;99514.97;;;24.63;57.39
70982;BME280;58640;51.320;9.456;2022-08-01T11:08:09;99498.84;;;24.40;56.68
70982;BME280;58640;51.320;9.456;2022-08-01T11:10:41;99504.31;;;24.35;57.27
70982;BME280;58640;51.320;9.456;2022-08-01T11:13:09;99494.22;;;24.09;57.56
70982;BME280;58640;51.320;9.456;2022-08-01T11:15:37;99501.56;;;24.35;57.66
70982;BME280;58640;51.320;9.456;2022-08-01T11:18:29;99496.19;;;24.50;57.91
70982;BME280;58640;51.320;9.456;2022-08-01T11:21:00;99492.00;;;24.42;57.07
70982;BME280;58640;51.320;9.456;2022-08-01T11:23:29;99494.97;;;24.36;57.84
70982;BME280;58640;51.320;9.456;2022-08-01T11:28:26;99496.97;;;24.45;56.35
70982;BME280;58640;51.320;9.456;2022-08-01T11:31:24;99495.28;;;24.39;56.97
70982;BME280;58640;51.320;9.456;2022-08-01T11:43:54;99501.38;;;24.46;54.41
70982;BME280;58640;51.320;9.456;2022-08-01T11:54:38;99501.09;;;24.48;55.00
70982;BME280;58640;51.320;9.456;2022-08-01T11:57:27;99493.97;;;24.47;54.03
70982;BME280;58640;51.320;9.456;2022-08-01T11:59:53;99489.84;;;24.49;54.19
70982;BME280;58640;51.320;9.456;2022-08-01T12:05:00;99487.69;;;24.20;54.06
70982;BME280;58640;51.320;9.456;2022-08-01T12:07:27;99495.19;;;24.29;54.96
70982;BME280;58640;51.320;9.456;2022-08-01T12:09:58;99493.84;;;24.32;54.56
70982;BME280;58640;51.320;9.456;2022-08-01T12:12:26;99484.16;;;24.24;54.66
70982;BME280;58640;51.320;9.456;2022-08-01T12:14:56;99488.53;;;24.20;53.47
70982;BME280;58640;51.320;9.456;2022-08-01T12:20:18;99485.72;;;23.89;54.13
70982;BME280;58640;51.320;9.456;2022-08-01T12:22:44;99494.19;;;23.82;55.39
70982;BME280;58640;51.320;9.456;2022-08-01T12:25:12;99490.06;;;23.80;54.79
70982;BME280;58640;51.320;9.456;2022-08-01T12:27:39;99489.94;;;23.70;54.91
70982;BME280;58640;51.320;9.456;2022-08-01T12:30:06;99500.56;;;23.88;53.80
70982;BME280;58640;51.320;9.456;2022-08-01T12:32:35;99490.25;;;23.73;55.10
70982;BME280;58640;51.320;9.456;2022-08-01T12:35:10;99499.44;;;23.84;54.02
70982;BME280;58640;51.320;9.456;2022-08-01T12:37:41;99500.84;;;23.60;56.08
70982;BME280;58640;51.320;9.456;2022-08-01T12:40:10;99514.50;;;23.33;57.42
70982;BME280;58640;51.320;9.456;2022-08-01T12:42:37;99508.81;;;23.18;56.88
70982;BME280;58640;51.320;9.456;2022-08-01T12:45:05;99509.25;;;23.10;56.91
70982;BME280;58640;51.320;9.456;2022-08-01T12:47:32;99511.00;;;22.78;59.44
70982;BME280;58640;51.320;9.456;2022-08-01T12:49:58;99520.47;;;22.87;59.12
70982;BME280;58640;51.320;9.456;2022-08-01T12:52:23;99523.53;;;22.90;59.38
70982;BME280;58640;51.320;9.456;2022-08-01T12:55:15;99526.81;;;22.71;59.10
70982;BME280;58640;51.320;9.456;2022-08-01T12:57:44;99525.56;;;22.45;59.87
70982;BME280;58640;51.320;9.456;2022-08-01T13:00:18;99524.50;;;22.46;59.46
70982;BME280;58640;51.320;9.456;2022-08-01T13:02:45;99531.19;;;22.39;60.03
70982;BME280;58640;51.320;9.456;2022-08-01T13:05:12;99522.50;;;22.25;60.37
70982;BME280;58640;51.320;9.456;2022-08-01T13:07:49;99525.31;;;22.14;61.69
70982;BME280;58640;51.320;9.456;2022-08-01T13:10:25;99534.28;;;22.09;62.29
70982;BME280;58640;51.320;9.456;2022-08-01T13:12:52;99536.81;;;21.99;64.48
70982;BME280;58640;51.320;9.456;2022-08-01T13:17:49;99536.59;;;22.17;61.99
70982;BME280;58640;51.320;9.456;2022-08-01T13:20:24;99524.72;;;22.28;61.07
70982;BME280;58640;51.320;9.456;2022-08-01T13:22:50;99531.50;;;22.54;60.28
70982;BME280;58640;51.320;9.456;2022-08-01T13:25:17;99528.16;;;22.68;59.57
70982;BME280;58640;51.320;9.456;2022-08-01T13:27:43;99525.75;;;22.72;60.15
70982;BME280;58640;51.320;9.456;2022-08-01T13:30:13;99522.41;;;22.86;59.31
70982;BME280;58640;51.320;9.456;2022-08-01T13:32:39;99524.88;;;22.88;60.06
70982;BME280;58640;51.320;9.456;2022-08-01T13:35:07;99515.00;;;23.08;59.29
70982;BME280;58640;51.320;9.456;2022-08-01T13:37:33;99521.56;;;23.07;59.18
70982;BME280;58640;51.320;9.456;2022-08-01T13:39:58;99518.75;;;23.02;59.58
70982;BME280;58640;51.320;9.456;2022-08-01T13:42:24;99514.31;;;23.18;58.96
70982;BME280;58640;51.320;9.456;2022-08-01T13:44:49;99518.38;;;23.15;59.29
70982;BME280;58640;51.320;9.456;2022-08-01T13:47:14;99516.16;;;23.12;59.03
70982;BME280;58640;51.320;9.456;2022-08-01T13:49:40;99512.88;;;23.15;59.16
70982;BME280;58640;51.320;9.456;2022-08-01T13:52:06;99526.00;;;23.30;59.68
70982;BME280;58640;51.320;9.456;2022-08-01T13:54:32;99520.25;;;23.32;58.97